sensor_id;sensor_type;location;lat;lon;timestamp;P1;durP1;ratioP1;P2;durP2;ratioP2
75655;SDS011;64252;51.094;13.714;2023-06-10T00:01:57;10.57;;;6.20;;
75655;SDS011;64252;51.094;13.714;2023-06-10T00:04:25;9.35;;;6.15;;
75655;SDS011;64252;51.094;13.714;2023-06-10T00:06:53;7.20;;;5.85;;
75655;SDS011;64252;51.094;13.714;2023-06-10T00:09:19;9.73;;;6.90;;
75655;SDS011;64252;51.094;13.714;2023-06-10T00:11:46;8.63;;;6.60;;
75655;SDS011;64252;51.094;13.714;2023-06-10T00:14:12;8.32;;;5.68;;
75655;SDS011;64252;51.094;13.714;2023-06-10T00:16:38;7.10;;;5.40;;
75655;SDS011;64252;51.094;13.714;2023-06-10T00:19:04;6.68;;;5.57;;
75655;SDS011;64252;51.094;13.714;2023-06-10T00:21:31;7.70;;;4.75;;
75655;SDS011;64252;51.094;13.714;2023-06-10T00:24:05;7.57;;;4.95;;
75655;SDS011;64252;51.094;13.714;2023-06-10T00:26:32;7.68;;;4.55;;
75655;SDS011;64252;51.094;13.714;2023-06-10T00:29:01;7.72;;;4.80;;
75655;SDS011;64252;51.094;13.714;2023-06-10T00:31:29;7.90;;;4.63;;
75655;SDS011;64252;51.094;13.714;2023-06-10T00:33:55;8.45;;;4.32;;
75655;SDS011;64252;51.094;13.714;2023-06-10T00:36:21;5.57;;;4.25;;
75655;SDS011;64252;51.094;13.714;2023-06-10T00:38:46;6.70;;;4.70;;
75655;SDS011;64252;51.094;13.714;2023-06-10T00:41:12;6.38;;;4.43;;
75655;SDS011;64252;51.094;13.714;2023-06-10T00:43:39;7.63;;;4.53;;
75655;SDS011;64252;51.094;13.714;2023-06-10T00:46:05;6.43;;;5.03;;
75655;SDS011;64252;51.094;13.714;2023-06-10T00:48:31;9.60;;;5.03;;
75655;SDS011;64252;51.094;13.714;2023-06-10T00:50:57;5.93;;;4.00;;
75655;SDS011;64252;51.094;13.714;2023-06-10T00:53:24;8.80;;;4.82;;
75655;SDS011;64252;51.094;13.714;2023-06-10T00:55:51;6.22;;;4.57;;
75655;SDS011;64252;51.094;13.714;2023-06-10T00:58:17;8.35;;;5.13;;
75655;SDS011;64252;51.094;13.714;2023-06-10T01:00:42;10.10;;;5.70;;
75655;SDS011;64252;51.094;13.714;2023-06-10T01:03:10;7.68;;;5.22;;
75655;SDS011;64252;51.094;13.714;2023-06-10T01:05:37;9.65;;;5.38;;
75655;SDS011;64252;51.094;13.714;2023-06-10T01:08:09;9.07;;;5.43;;
75655;SDS011;64252;51.094;13.714;2023-06-10T01:10:57;9.10;;;6.03;;
75655;SDS011;64252;51.094;13.714;2023-06-10T01:13:25;9.52;;;5.85;;
75655;SDS011;64252;51.094;13.714;2023-06-10T01:15:54;7.40;;;5.43;;
75655;SDS011;64252;51.094;13.714;2023-06-10T01:18:20;7.30;;;5.63;;
75655;SDS011;64252;51.094;13.714;2023-06-10T01:20:48;8.65;;;6.25;;
75655;SDS011;64252;51.094;13.714;2023-06-10T01:23:14;8.93;;;5.82;;
75655;SDS011;64252;51.094;13.714;2023-06-10T01:28:31;7.82;;;5.38;;
75655;SDS011;64252;51.094;13.714;2023-06-10T01:31:31;9.50;;;5.55;;
75655;SDS011;64252;51.094;13.714;2023-06-10T01:33:59;7.80;;;6.00;;
75655;SDS011;64252;51.094;13.714;2023-06-10T01:36:27;8.63;;;6.22;;
75655;SDS011;64252;51.094;13.714;2023-06-10T01:38:54;7.50;;;5.68;;
75655;SDS011;64252;51.094;13.714;2023-06-10T01:41:21;7.95;;;6.20;;
75655;SDS011;64252;51.094;13.714;2023-06-10T01:43:48;8.20;;;5.97;;
75655;SDS011;64252;51.094;13.714;2023-06-10T01:46:14;7.43;;;6.07;;
75655;SDS011;64252;51.094;13.714;2023-06-10T01:48:41;11.65;;;6.78;;
75655;SDS011;64252;51.094;13.714;2023-06-10T01:51:08;8.20;;;6.53;;
75655;SDS011;64252;51.094;13.714;2023-06-10T01:53:35;9.63;;;7.00;;
75655;SDS011;64252;51.094;13.714;2023-06-10T01:56:01;8.23;;;6.38;;
75655;SDS011;64252;51.094;13.714;2023-06-10T01:58:28;10.35;;;6.70;;
75655;SDS011;64252;51.094;13.714;2023-06-10T02:00:54;8.68;;;7.22;;
75655;SDS011;64252;51.094;13.714;2023-06-10T02:03:20;12.80;;;7.82;;
75655;SDS011;64252;51.094;13.714;2023-06-10T02:05:46;11.63;;;6.90;;
75655;SDS011;64252;51.094;13.714;2023-06-10T02:08:11;9.02;;;6.93;;
75655;SDS011;64252;51.094;13.714;2023-06-10T02:10:37;10.02;;;6.55;;
75655;SDS011;64252;51.094;13.714;2023-06-10T02:13:03;10.77;;;6.78;;
75655;SDS011;64252;51.094;13.714;2023-06-10T02:15:28;10.35;;;7.35;;
75655;SDS011;64252;51.094;13.714;2023-06-10T02:17:55;9.88;;;6.72;;
75655;SDS011;64252;51.094;13.714;2023-06-10T02:20:21;8.38;;;6.93;;
75655;SDS011;64252;51.094;13.714;2023-06-10T02:22:46;9.50;;;7.15;;
75655;SDS011;64252;51.094;13.714;2023-06-10T02:25:12;9.25;;;6.68;;
75655;SDS011;64252;51.094;13.714;2023-06-10T02:27:38;10.23;;;7.45;;
75655;SDS011;64252;51.094;13.714;2023-06-10T02:30:03;8.90;;;7.47;;
75655;SDS011;64252;51.094;13.714;2023-06-10T02:32:33;13.15;;;8.45;;
75655;SDS011;64252;51.094;13.714;2023-06-10T02:34:58;10.15;;;8.13;;
75655;SDS011;64252;51.094;13.714;2023-06-10T02:37:26;9.93;;;8.07;;
75655;SDS011;64252;51.094;13.714;2023-06-10T02:39:54;11.73;;;7.82;;
75655;SDS011;64252;51.094;13.714;2023-06-10T02:42:19;9.88;;;7.78;;
75655;SDS011;64252;51.094;13.714;2023-06-10T02:44:46;13.27;;;8.30;;
75655;SDS011;64252;51.094;13.714;2023-06-10T02:47:18;10.43;;;7.00;;
75655;SDS011;64252;51.094;13.714;2023-06-10T02:49:44;10.77;;;8.25;;
75655;SDS011;64252;51.094;13.714;2023-06-10T02:52:09;10.88;;;7.75;;
75655;SDS011;64252;51.094;13.714;2023-06-10T02:54:36;11.13;;;8.35;;
75655;SDS011;64252;51.094;13.714;2023-06-10T02:57:04;11.27;;;8.48;;
75655;SDS011;64252;51.094;13.714;2023-06-10T02:59:30;12.52;;;8.73;;
75655;SDS011;64252;51.094;13.714;2023-06-10T03:01:56;10.73;;;8.30;;
75655;SDS011;64252;51.094;13.714;2023-06-10T03:04:23;11.07;;;8.98;;
75655;SDS011;64252;51.094;13.714;2023-06-10T03:06:58;10.98;;;8.48;;
75655;SDS011;64252;51.094;13.714;2023-06-10T03:09:31;10.55;;;8.57;;
75655;SDS011;64252;51.094;13.714;2023-06-10T03:11:58;12.57;;;9.35;;
75655;SDS011;64252;51.094;13.714;2023-06-10T03:14:27;13.00;;;8.52;;
75655;SDS011;64252;51.094;13.714;2023-06-10T03:16:53;12.18;;;8.95;;
75655;SDS011;64252;51.094;13.714;2023-06-10T03:19:21;11.75;;;8.40;;
75655;SDS011;64252;51.094;13.714;2023-06-10T03:21:49;12.32;;;8.10;;
75655;SDS011;64252;51.094;13.714;2023-06-10T03:24:32;12.18;;;9.15;;
75655;SDS011;64252;51.094;13.714;2023-06-10T03:26:58;10.43;;;7.97;;
75655;SDS011;64252;51.094;13.714;2023-06-10T03:29:23;12.15;;;8.68;;
75655;SDS011;64252;51.094;13.714;2023-06-10T03:31:49;12.85;;;9.00;;
75655;SDS011;64252;51.094;13.714;2023-06-10T03:34:15;11.13;;;8.27;;
75655;SDS011;64252;51.094;13.714;2023-06-10T03:36:41;12.27;;;9.05;;
75655;SDS011;64252;51.094;13.714;2023-06-10T03:39:08;11.05;;;8.55;;
75655;SDS011;64252;51.094;13.714;2023-06-10T03:41:35;11.98;;;9.05;;
75655;SDS011;64252;51.094;13.714;2023-06-10T03:44:01;11.90;;;8.77;;
75655;SDS011;64252;51.094;13.714;2023-06-10T03:46:27;11.45;;;9.43;;
75655;SDS011;64252;51.094;13.714;2023-06-10T03:48:53;13.02;;;8.55;;
75655;SDS011;64252;51.094;13.714;2023-06-10T03:51:19;11.32;;;8.52;;
75655;SDS011;64252;51.094;13.714;2023-06-10T03:53:45;9.93;;;8.70;;
75655;SDS011;64252;51.094;13.714;2023-06-10T03:56:10;11.55;;;9.52;;
75655;SDS011;64252;51.094;13.714;2023-06-10T03:58:36;10.38;;;8.73;;
75655;SDS011;64252;51.094;13.714;2023-06-10T04:01:03;11.57;;;8.45;;
75655;SDS011;64252;51.094;13.714;2023-06-10T04:03:42;11.52;;;8.50;;
75655;SDS011;64252;51.094;13.714;2023-06-10T04:06:08;11.13;;;8.73;;
75655;SDS011;64252;51.094;13.714;2023-06-10T04:08:35;9.80;;;8.52;;
75655;SDS011;64252;51.094;13.714;2023-06-10T04:11:01;9.40;;;8.05;;
75655;SDS011;64252;51.094;13.714;2023-06-10T04:13:28;11.25;;;9.15;;
75655;SDS011;64252;51.094;13.714;2023-06-10T04:15:57;11.05;;;8.93;;
75655;SDS011;64252;51.094;13.714;2023-06-10T04:18:23;12.90;;;8.18;;
75655;SDS011;64252;51.094;13.714;2023-06-10T04:20:49;14.30;;;9.38;;
75655;SDS011;64252;51.094;13.714;2023-06-10T04:23:16;12.32;;;9.07;;
75655;SDS011;64252;51.094;13.714;2023-06-10T04:25:44;13.27;;;10.38;;
75655;SDS011;64252;51.094;13.714;2023-06-10T04:28:11;12.23;;;9.55;;
75655;SDS011;64252;51.094;13.714;2023-06-10T04:30:36;11.40;;;9.00;;
75655;SDS011;64252;51.094;13.714;2023-06-10T04:33:02;12.75;;;8.85;;
75655;SDS011;64252;51.094;13.714;2023-06-10T04:35:28;10.50;;;8.65;;
75655;SDS011;64252;51.094;13.714;2023-06-10T04:38:05;10.75;;;8.63;;
75655;SDS011;64252;51.094;13.714;2023-06-10T04:40:34;10.35;;;8.20;;
75655;SDS011;64252;51.094;13.714;2023-06-10T04:43:01;11.20;;;8.95;;
75655;SDS011;64252;51.094;13.714;2023-06-10T04:45:28;12.90;;;8.60;;
75655;SDS011;64252;51.094;13.714;2023-06-10T04:47:55;11.93;;;9.10;;
75655;SDS011;64252;51.094;13.714;2023-06-10T04:50:21;11.80;;;8.82;;
75655;SDS011;64252;51.094;13.714;2023-06-10T04:52:47;13.52;;;8.90;;
75655;SDS011;64252;51.094;13.714;2023-06-10T04:55:13;10.10;;;7.95;;
75655;SDS011;64252;51.094;13.714;2023-06-10T04:57:39;10.63;;;8.13;;
75655;SDS011;64252;51.094;13.714;2023-06-10T05:00:05;10.95;;;8.57;;
75655;SDS011;64252;51.094;13.714;2023-06-10T05:02:31;11.98;;;7.70;;
75655;SDS011;64252;51.094;13.714;2023-06-10T05:04:59;12.70;;;8.32;;
75655;SDS011;64252;51.094;13.714;2023-06-10T05:07:25;11.40;;;7.57;;
75655;SDS011;64252;51.094;13.714;2023-06-10T05:09:51;9.15;;;6.80;;
75655;SDS011;64252;51.094;13.714;2023-06-10T05:12:16;11.18;;;5.82;;
75655;SDS011;64252;51.094;13.714;2023-06-10T05:14:42;7.53;;;5.85;;
75655;SDS011;64252;51.094;13.714;2023-06-10T05:17:07;7.95;;;5.38;;
75655;SDS011;64252;51.094;13.714;2023-06-10T05:19:33;7.22;;;5.18;;
75655;SDS011;64252;51.094;13.714;2023-06-10T05:22:01;6.22;;;4.72;;
75655;SDS011;64252;51.094;13.714;2023-06-10T05:24:27;10.20;;;5.60;;
75655;SDS011;64252;51.094;13.714;2023-06-10T05:26:53;9.90;;;7.32;;
75655;SDS011;64252;51.094;13.714;2023-06-10T05:29:19;7.45;;;5.28;;
75655;SDS011;64252;51.094;13.714;2023-06-10T05:31:45;8.75;;;5.53;;
75655;SDS011;64252;51.094;13.714;2023-06-10T05:34:10;7.45;;;4.88;;
75655;SDS011;64252;51.094;13.714;2023-06-10T05:36:36;6.60;;;4.78;;
75655;SDS011;64252;51.094;13.714;2023-06-10T05:39:04;6.85;;;5.13;;
75655;SDS011;64252;51.094;13.714;2023-06-10T05:41:30;6.68;;;5.30;;
75655;SDS011;64252;51.094;13.714;2023-06-10T05:43:56;6.15;;;4.60;;
75655;SDS011;64252;51.094;13.714;2023-06-10T05:46:21;6.10;;;3.97;;
75655;SDS011;64252;51.094;13.714;2023-06-10T05:48:47;9.98;;;4.18;;
75655;SDS011;64252;51.094;13.714;2023-06-10T05:51:13;6.57;;;4.07;;
75655;SDS011;64252;51.094;13.714;2023-06-10T05:53:38;7.70;;;3.72;;
75655;SDS011;64252;51.094;13.714;2023-06-10T05:56:04;6.13;;;4.63;;
75655;SDS011;64252;51.094;13.714;2023-06-10T05:58:30;5.10;;;3.83;;
75655;SDS011;64252;51.094;13.714;2023-06-10T06:00:58;8.85;;;4.38;;
75655;SDS011;64252;51.094;13.714;2023-06-10T06:03:26;5.38;;;4.07;;
75655;SDS011;64252;51.094;13.714;2023-06-10T06:05:53;4.93;;;3.97;;
75655;SDS011;64252;51.094;13.714;2023-06-10T06:08:19;6.28;;;3.97;;
75655;SDS011;64252;51.094;13.714;2023-06-10T06:10:45;6.15;;;4.47;;
75655;SDS011;64252;51.094;13.714;2023-06-10T06:15:39;8.20;;;3.72;;
75655;SDS011;64252;51.094;13.714;2023-06-10T06:18:05;6.40;;;4.35;;
75655;SDS011;64252;51.094;13.714;2023-06-10T06:20:30;6.43;;;4.10;;
75655;SDS011;64252;51.094;13.714;2023-06-10T06:22:56;6.55;;;4.65;;
75655;SDS011;64252;51.094;13.714;2023-06-10T06:25:21;5.25;;;4.63;;
75655;SDS011;64252;51.094;13.714;2023-06-10T06:27:48;5.72;;;3.78;;
75655;SDS011;64252;51.094;13.714;2023-06-10T06:30:13;5.07;;;4.07;;
75655;SDS011;64252;51.094;13.714;2023-06-10T06:32:39;5.38;;;3.53;;
75655;SDS011;64252;51.094;13.714;2023-06-10T06:35:05;5.30;;;3.80;;
75655;SDS011;64252;51.094;13.714;2023-06-10T06:40:24;6.72;;;4.13;;
75655;SDS011;64252;51.094;13.714;2023-06-10T06:42:50;5.57;;;3.75;;
75655;SDS011;64252;51.094;13.714;2023-06-10T06:45:36;5.43;;;4.03;;
75655;SDS011;64252;51.094;13.714;2023-06-10T06:48:01;5.63;;;3.60;;
75655;SDS011;64252;51.094;13.714;2023-06-10T06:50:27;8.02;;;3.92;;
75655;SDS011;64252;51.094;13.714;2023-06-10T06:52:53;6.68;;;3.20;;
75655;SDS011;64252;51.094;13.714;2023-06-10T06:55:18;5.85;;;3.45;;
75655;SDS011;64252;51.094;13.714;2023-06-10T06:57:44;6.18;;;3.55;;
75655;SDS011;64252;51.094;13.714;2023-06-10T07:00:11;5.22;;;3.35;;
75655;SDS011;64252;51.094;13.714;2023-06-10T07:02:37;6.38;;;3.08;;
75655;SDS011;64252;51.094;13.714;2023-06-10T07:05:03;5.03;;;4.20;;
75655;SDS011;64252;51.094;13.714;2023-06-10T07:07:29;7.32;;;3.42;;
75655;SDS011;64252;51.094;13.714;2023-06-10T07:09:54;5.20;;;3.38;;
75655;SDS011;64252;51.094;13.714;2023-06-10T07:12:23;5.13;;;3.40;;
75655;SDS011;64252;51.094;13.714;2023-06-10T07:14:58;5.80;;;3.80;;
75655;SDS011;64252;51.094;13.714;2023-06-10T07:17:24;5.75;;;3.20;;
75655;SDS011;64252;51.094;13.714;2023-06-10T07:19:50;4.65;;;3.40;;
75655;SDS011;64252;51.094;13.714;2023-06-10T07:22:16;7.07;;;3.58;;
75655;SDS011;64252;51.094;13.714;2023-06-10T07:24:45;7.85;;;3.60;;
75655;SDS011;64252;51.094;13.714;2023-06-10T07:27:11;6.07;;;3.83;;
75655;SDS011;64252;51.094;13.714;2023-06-10T07:29:37;5.90;;;3.60;;
75655;SDS011;64252;51.094;13.714;2023-06-10T07:32:03;4.85;;;4.20;;
75655;SDS011;64252;51.094;13.714;2023-06-10T07:34:29;5.20;;;3.53;;
75655;SDS011;64252;51.094;13.714;2023-06-10T07:36:54;5.57;;;4.00;;
75655;SDS011;64252;51.094;13.714;2023-06-10T07:39:20;6.05;;;3.30;;
75655;SDS011;64252;51.094;13.714;2023-06-10T07:41:46;6.30;;;3.83;;
75655;SDS011;64252;51.094;13.714;2023-06-10T07:44:11;7.97;;;3.85;;
75655;SDS011;64252;51.094;13.714;2023-06-10T07:46:37;5.13;;;3.60;;
75655;SDS011;64252;51.094;13.714;2023-06-10T07:49:02;5.28;;;3.60;;
75655;SDS011;64252;51.094;13.714;2023-06-10T07:51:28;6.05;;;3.35;;
75655;SDS011;64252;51.094;13.714;2023-06-10T07:53:54;5.55;;;3.47;;
75655;SDS011;64252;51.094;13.714;2023-06-10T07:56:19;5.95;;;4.28;;
75655;SDS011;64252;51.094;13.714;2023-06-10T07:58:46;6.50;;;3.78;;
75655;SDS011;64252;51.094;13.714;2023-06-10T08:01:12;6.65;;;3.72;;
75655;SDS011;64252;51.094;13.714;2023-06-10T08:03:37;7.78;;;3.88;;
75655;SDS011;64252;51.094;13.714;2023-06-10T08:06:03;6.53;;;4.00;;
75655;SDS011;64252;51.094;13.714;2023-06-10T08:08:29;6.30;;;3.80;;
75655;SDS011;64252;51.094;13.714;2023-06-10T08:10:54;5.85;;;3.88;;
75655;SDS011;64252;51.094;13.714;2023-06-10T08:13:20;6.07;;;3.95;;
75655;SDS011;64252;51.094;13.714;2023-06-10T08:15:45;7.82;;;3.92;;
75655;SDS011;64252;51.094;13.714;2023-06-10T08:18:13;6.32;;;4.20;;
75655;SDS011;64252;51.094;13.714;2023-06-10T08:20:38;7.50;;;3.97;;
75655;SDS011;64252;51.094;13.714;2023-06-10T08:23:04;9.57;;;4.28;;
75655;SDS011;64252;51.094;13.714;2023-06-10T08:25:29;8.82;;;4.22;;
75655;SDS011;64252;51.094;13.714;2023-06-10T08:27:56;6.68;;;3.95;;
75655;SDS011;64252;51.094;13.714;2023-06-10T08:30:24;6.75;;;4.55;;
75655;SDS011;64252;51.094;13.714;2023-06-10T08:32:50;8.55;;;4.63;;
75655;SDS011;64252;51.094;13.714;2023-06-10T08:35:18;6.68;;;4.22;;
75655;SDS011;64252;51.094;13.714;2023-06-10T08:37:44;5.60;;;4.55;;
75655;SDS011;64252;51.094;13.714;2023-06-10T08:40:09;7.25;;;4.03;;
75655;SDS011;64252;51.094;13.714;2023-06-10T08:42:39;6.95;;;4.22;;
75655;SDS011;64252;51.094;13.714;2023-06-10T08:45:08;5.95;;;4.07;;
75655;SDS011;64252;51.094;13.714;2023-06-10T08:47:42;5.53;;;4.20;;
75655;SDS011;64252;51.094;13.714;2023-06-10T08:50:10;6.13;;;3.85;;
75655;SDS011;64252;51.094;13.714;2023-06-10T08:52:36;5.57;;;3.90;;
75655;SDS011;64252;51.094;13.714;2023-06-10T08:55:12;8.48;;;4.55;;
75655;SDS011;64252;51.094;13.714;2023-06-10T08:57:43;6.65;;;3.80;;
75655;SDS011;64252;51.094;13.714;2023-06-10T09:00:10;7.85;;;4.18;;
75655;SDS011;64252;51.094;13.714;2023-06-10T09:02:38;5.85;;;4.10;;
75655;SDS011;64252;51.094;13.714;2023-06-10T09:05:04;8.77;;;4.35;;
75655;SDS011;64252;51.094;13.714;2023-06-10T09:07:30;6.38;;;3.80;;
75655;SDS011;64252;51.094;13.714;2023-06-10T09:09:56;6.35;;;3.50;;
75655;SDS011;64252;51.094;13.714;2023-06-10T09:12:24;7.05;;;3.65;;
75655;SDS011;64252;51.094;13.714;2023-06-10T09:14:49;7.65;;;4.22;;
75655;SDS011;64252;51.094;13.714;2023-06-10T09:17:15;5.07;;;3.58;;
75655;SDS011;64252;51.094;13.714;2023-06-10T09:19:42;5.88;;;3.90;;
75655;SDS011;64252;51.094;13.714;2023-06-10T09:22:09;5.45;;;3.67;;
75655;SDS011;64252;51.094;13.714;2023-06-10T09:24:35;8.38;;;3.72;;
75655;SDS011;64252;51.094;13.714;2023-06-10T09:27:04;6.85;;;4.35;;
75655;SDS011;64252;51.094;13.714;2023-06-10T09:32:18;6.65;;;4.00;;
75655;SDS011;64252;51.094;13.714;2023-06-10T09:34:44;5.63;;;4.07;;
75655;SDS011;64252;51.094;13.714;2023-06-10T09:37:11;7.57;;;4.05;;
75655;SDS011;64252;51.094;13.714;2023-06-10T09:39:39;6.65;;;4.00;;
75655;SDS011;64252;51.094;13.714;2023-06-10T09:42:17;5.78;;;3.78;;
75655;SDS011;64252;51.094;13.714;2023-06-10T09:44:53;5.25;;;3.90;;
75655;SDS011;64252;51.094;13.714;2023-06-10T09:47:22;6.88;;;3.83;;
75655;SDS011;64252;51.094;13.714;2023-06-10T09:49:51;6.35;;;3.63;;
75655;SDS011;64252;51.094;13.714;2023-06-10T09:52:25;9.45;;;3.65;;
75655;SDS011;64252;51.094;13.714;2023-06-10T09:54:52;6.75;;;3.90;;
75655;SDS011;64252;51.094;13.714;2023-06-10T09:57:19;5.90;;;3.53;;
75655;SDS011;64252;51.094;13.714;2023-06-10T09:59:46;6.47;;;3.72;;
75655;SDS011;64252;51.094;13.714;2023-06-10T10:02:15;7.68;;;3.92;;
75655;SDS011;64252;51.094;13.714;2023-06-10T10:04:42;5.75;;;3.58;;
75655;SDS011;64252;51.094;13.714;2023-06-10T10:07:09;7.38;;;3.33;;
75655;SDS011;64252;51.094;13.714;2023-06-10T10:09:36;8.90;;;4.03;;
75655;SDS011;64252;51.094;13.714;2023-06-10T10:12:03;6.90;;;4.00;;
75655;SDS011;64252;51.094;13.714;2023-06-10T10:14:34;9.43;;;4.13;;
75655;SDS011;64252;51.094;13.714;2023-06-10T10:17:01;8.07;;;4.00;;
75655;SDS011;64252;51.094;13.714;2023-06-10T10:19:30;7.28;;;3.88;;
75655;SDS011;64252;51.094;13.714;2023-06-10T10:22:04;6.93;;;4.05;;
75655;SDS011;64252;51.094;13.714;2023-06-10T10:24:36;8.35;;;4.32;;
75655;SDS011;64252;51.094;13.714;2023-06-10T10:27:30;7.15;;;3.90;;
75655;SDS011;64252;51.094;13.714;2023-06-10T10:30:06;7.15;;;4.70;;
75655;SDS011;64252;51.094;13.714;2023-06-10T10:32:38;6.85;;;4.00;;
75655;SDS011;64252;51.094;13.714;2023-06-10T10:35:28;5.30;;;3.83;;
75655;SDS011;64252;51.094;13.714;2023-06-10T10:38:04;6.90;;;3.95;;
75655;SDS011;64252;51.094;13.714;2023-06-10T10:40:31;6.65;;;4.15;;
75655;SDS011;64252;51.094;13.714;2023-06-10T10:43:00;5.40;;;4.03;;
75655;SDS011;64252;51.094;13.714;2023-06-10T10:45:30;8.82;;;4.45;;
75655;SDS011;64252;51.094;13.714;2023-06-10T10:47:55;6.75;;;3.85;;
75655;SDS011;64252;51.094;13.714;2023-06-10T10:50:22;5.80;;;3.72;;
75655;SDS011;64252;51.094;13.714;2023-06-10T10:52:55;6.78;;;4.13;;
75655;SDS011;64252;51.094;13.714;2023-06-10T10:55:25;8.45;;;4.40;;
75655;SDS011;64252;51.094;13.714;2023-06-10T10:58:05;8.60;;;4.40;;
75655;SDS011;64252;51.094;13.714;2023-06-10T11:00:32;7.72;;;4.45;;
75655;SDS011;64252;51.094;13.714;2023-06-10T11:08:07;6.93;;;4.72;;
75655;SDS011;64252;51.094;13.714;2023-06-10T11:10:34;6.20;;;4.50;;
75655;SDS011;64252;51.094;13.714;2023-06-10T11:13:09;5.68;;;3.97;;
75655;SDS011;64252;51.094;13.714;2023-06-10T11:15:39;7.13;;;4.30;;
75655;SDS011;64252;51.094;13.714;2023-06-10T11:18:30;7.45;;;4.78;;
75655;SDS011;64252;51.094;13.714;2023-06-10T11:21:04;5.72;;;3.95;;
75655;SDS011;64252;51.094;13.714;2023-06-10T11:23:32;7.57;;;4.70;;
75655;SDS011;64252;51.094;13.714;2023-06-10T11:31:19;7.53;;;4.10;;
75655;SDS011;64252;51.094;13.714;2023-06-10T11:33:46;5.60;;;4.00;;
75655;SDS011;64252;51.094;13.714;2023-06-10T11:36:13;7.43;;;4.32;;
75655;SDS011;64252;51.094;13.714;2023-06-10T11:38:40;7.00;;;4.00;;
75655;SDS011;64252;51.094;13.714;2023-06-10T11:41:06;9.55;;;4.72;;
75655;SDS011;64252;51.094;13.714;2023-06-10T11:43:32;8.02;;;4.15;;
75655;SDS011;64252;51.094;13.714;2023-06-10T11:45:59;9.35;;;4.32;;
75655;SDS011;64252;51.094;13.714;2023-06-10T11:48:25;6.65;;;3.92;;
75655;SDS011;64252;51.094;13.714;2023-06-10T11:50:54;6.13;;;4.07;;
75655;SDS011;64252;51.094;13.714;2023-06-10T11:53:20;6.75;;;4.13;;
75655;SDS011;64252;51.094;13.714;2023-06-10T11:55:47;6.35;;;4.18;;
75655;SDS011;64252;51.094;13.714;2023-06-10T11:58:18;6.80;;;3.80;;
75655;SDS011;64252;51.094;13.714;2023-06-10T12:00:48;5.88;;;4.45;;
75655;SDS011;64252;51.094;13.714;2023-06-10T12:03:16;7.38;;;3.60;;
75655;SDS011;64252;51.094;13.714;2023-06-10T12:06:01;6.20;;;4.00;;
75655;SDS011;64252;51.094;13.714;2023-06-10T12:08:29;5.68;;;3.85;;
75655;SDS011;64252;51.094;13.714;2023-06-10T12:10:55;5.95;;;4.40;;
75655;SDS011;64252;51.094;13.714;2023-06-10T12:13:22;6.47;;;4.30;;
75655;SDS011;64252;51.094;13.714;2023-06-10T12:15:51;8.80;;;4.00;;
75655;SDS011;64252;51.094;13.714;2023-06-10T12:18:24;9.65;;;4.55;;
75655;SDS011;64252;51.094;13.714;2023-06-10T12:20:51;6.40;;;4.15;;
75655;SDS011;64252;51.094;13.714;2023-06-10T12:23:17;8.48;;;3.90;;
75655;SDS011;64252;51.094;13.714;2023-06-10T12:25:53;5.65;;;4.07;;
75655;SDS011;64252;51.094;13.714;2023-06-10T12:28:23;6.70;;;4.03;;
75655;SDS011;64252;51.094;13.714;2023-06-10T12:31:13;6.68;;;4.68;;
75655;SDS011;64252;51.094;13.714;2023-06-10T12:33:38;6.30;;;4.10;;
75655;SDS011;64252;51.094;13.714;2023-06-10T12:36:04;7.18;;;4.03;;
75655;SDS011;64252;51.094;13.714;2023-06-10T12:38:31;5.95;;;4.30;;
75655;SDS011;64252;51.094;13.714;2023-06-10T12:41:03;5.53;;;3.70;;
75655;SDS011;64252;51.094;13.714;2023-06-10T12:43:31;8.45;;;3.47;;
75655;SDS011;64252;51.094;13.714;2023-06-10T12:46:08;5.70;;;3.60;;
75655;SDS011;64252;51.094;13.714;2023-06-10T12:48:34;7.53;;;3.70;;
75655;SDS011;64252;51.094;13.714;2023-06-10T12:51:00;6.03;;;3.70;;
75655;SDS011;64252;51.094;13.714;2023-06-10T12:53:26;5.38;;;3.60;;
75655;SDS011;64252;51.094;13.714;2023-06-10T12:55:52;6.28;;;3.83;;
75655;SDS011;64252;51.094;13.714;2023-06-10T12:58:20;5.95;;;3.72;;
75655;SDS011;64252;51.094;13.714;2023-06-10T13:00:47;5.40;;;3.47;;
75655;SDS011;64252;51.094;13.714;2023-06-10T13:03:13;7.15;;;3.40;;
75655;SDS011;64252;51.094;13.714;2023-06-10T13:05:39;6.65;;;4.13;;
75655;SDS011;64252;51.094;13.714;2023-06-10T13:08:06;5.97;;;4.03;;
75655;SDS011;64252;51.094;13.714;2023-06-10T13:10:35;5.15;;;3.83;;
75655;SDS011;64252;51.094;13.714;2023-06-10T13:13:02;6.32;;;3.70;;
75655;SDS011;64252;51.094;13.714;2023-06-10T13:15:30;7.13;;;3.72;;
75655;SDS011;64252;51.094;13.714;2023-06-10T13:17:56;6.75;;;3.88;;
75655;SDS011;64252;51.094;13.714;2023-06-10T13:20:22;8.73;;;4.15;;
75655;SDS011;64252;51.094;13.714;2023-06-10T13:22:48;7.45;;;3.90;;
75655;SDS011;64252;51.094;13.714;2023-06-10T13:25:14;5.10;;;4.30;;
75655;SDS011;64252;51.094;13.714;2023-06-10T13:27:40;8.07;;;3.90;;
75655;SDS011;64252;51.094;13.714;2023-06-10T13:30:07;6.50;;;3.70;;
75655;SDS011;64252;51.094;13.714;2023-06-10T13:32:34;6.97;;;3.78;;
75655;SDS011;64252;51.094;13.714;2023-06-10T13:35:00;5.18;;;3.33;;
75655;SDS011;64252;51.094;13.714;2023-06-10T13:37:26;6.90;;;3.85;;
75655;SDS011;64252;51.094;13.714;2023-06-10T13:39:53;5.28;;;3.42;;
75655;SDS011;64252;51.094;13.714;2023-06-10T13:42:19;6.53;;;3.45;;
75655;SDS011;64252;51.094;13.714;2023-06-10T13:44:46;5.70;;;3.33;;
75655;SDS011;64252;51.094;13.714;2023-06-10T13:47:13;4.70;;;3.33;;
75655;SDS011;64252;51.094;13.714;2023-06-10T13:49:38;5.97;;;3.28;;
75655;SDS011;64252;51.094;13.714;2023-06-10T13:52:05;6.35;;;3.13;;
75655;SDS011;64252;51.094;13.714;2023-06-10T13:54:32;6.80;;;3.15;;
75655;SDS011;64252;51.094;13.714;2023-06-10T13:56:57;4.53;;;2.53;;
75655;SDS011;64252;51.094;13.714;2023-06-10T13:59:24;5.47;;;3.35;;
75655;SDS011;64252;51.094;13.714;2023-06-10T14:01:49;5.70;;;3.30;;
75655;SDS011;64252;51.094;13.714;2023-06-10T14:04:15;5.00;;;3.28;;
75655;SDS011;64252;51.094;13.714;2023-06-10T14:06:41;5.07;;;2.85;;
75655;SDS011;64252;51.094;13.714;2023-06-10T14:09:06;5.13;;;3.13;;
75655;SDS011;64252;51.094;13.714;2023-06-10T14:11:32;4.18;;;2.60;;
75655;SDS011;64252;51.094;13.714;2023-06-10T14:13:58;9.45;;;3.55;;
75655;SDS011;64252;51.094;13.714;2023-06-10T14:16:23;6.38;;;2.88;;
75655;SDS011;64252;51.094;13.714;2023-06-10T14:18:49;8.10;;;3.65;;
75655;SDS011;64252;51.094;13.714;2023-06-10T14:21:16;5.03;;;3.30;;
75655;SDS011;64252;51.094;13.714;2023-06-10T14:23:42;4.78;;;3.08;;
75655;SDS011;64252;51.094;13.714;2023-06-10T14:26:11;7.65;;;3.40;;
75655;SDS011;64252;51.094;13.714;2023-06-10T14:28:37;8.13;;;2.85;;
75655;SDS011;64252;51.094;13.714;2023-06-10T14:31:03;5.57;;;3.10;;
75655;SDS011;64252;51.094;13.714;2023-06-10T14:33:28;5.03;;;2.50;;
75655;SDS011;64252;51.094;13.714;2023-06-10T14:35:56;10.40;;;3.20;;
75655;SDS011;64252;51.094;13.714;2023-06-10T14:38:22;5.18;;;2.90;;
75655;SDS011;64252;51.094;13.714;2023-06-10T14:40:48;4.72;;;3.05;;
75655;SDS011;64252;51.094;13.714;2023-06-10T14:43:14;5.55;;;2.85;;
75655;SDS011;64252;51.094;13.714;2023-06-10T14:45:40;6.03;;;3.22;;
75655;SDS011;64252;51.094;13.714;2023-06-10T14:48:06;7.05;;;2.75;;
75655;SDS011;64252;51.094;13.714;2023-06-10T14:50:32;7.07;;;3.60;;
75655;SDS011;64252;51.094;13.714;2023-06-10T14:53:00;4.85;;;2.85;;
75655;SDS011;64252;51.094;13.714;2023-06-10T14:55:25;5.90;;;3.40;;